createdAt,value
2023-05-13T00:02:00.368Z,5.9
2023-05-13T00:07:00.383Z,5.9
2023-05-13T00:12:00.355Z,5.9
2023-05-13T00:17:00.353Z,6.2
2023-05-13T00:22:00.354Z,6.1
2023-05-13T00:27:00.369Z,6.1
2023-05-13T00:32:00.459Z,6.3
2023-05-13T00:37:00.361Z,6.2
2023-05-13T00:42:00.369Z,6.0
2023-05-13T00:47:00.359Z,5.4
2023-05-13T00:52:00.368Z,5.4
2023-05-13T00:57:00.360Z,5.6
2023-05-13T01:02:00.386Z,5.7
2023-05-13T01:07:00.397Z,5.6
2023-05-13T01:12:00.367Z,6.2
2023-05-13T01:17:00.553Z,6.2
2023-05-13T01:22:00.415Z,5.9
2023-05-13T01:27:00.374Z,5.9
2023-05-13T01:32:00.386Z,6.3
2023-05-13T01:37:00.374Z,5.9
2023-05-13T01:42:00.375Z,6.4
2023-05-13T01:47:00.372Z,6.2
2023-05-13T01:52:00.378Z,6.1
2023-05-13T01:57:00.392Z,6.1
2023-05-13T02:02:00.400Z,5.5
2023-05-13T02:07:00.398Z,5.8
2023-05-13T02:12:00.387Z,6.2
2023-05-13T02:17:00.383Z,6.5
2023-05-13T02:22:00.386Z,6.2
2023-05-13T02:27:00.390Z,6.4
2023-05-13T02:32:00.414Z,6.8
2023-05-13T02:37:00.394Z,6.8
2023-05-13T02:42:00.391Z,6.7
2023-05-13T02:47:00.395Z,6.4
2023-05-13T02:52:00.399Z,6.7
2023-05-13T02:57:00.398Z,6.9
2023-05-13T03:02:00.404Z,6.9
2023-05-13T03:07:00.476Z,7.2
2023-05-13T03:12:00.416Z,7.0
2023-05-13T03:17:00.412Z,6.8
2023-05-13T03:22:00.444Z,7.3
2023-05-13T03:27:00.422Z,7.5
2023-05-13T03:32:00.408Z,7.1
2023-05-13T03:37:00.425Z,8.0
2023-05-13T03:42:00.412Z,7.8
2023-05-13T03:47:00.441Z,7.3
2023-05-13T03:52:00.480Z,7.8
2023-05-13T03:57:00.416Z,8.4
2023-05-13T04:02:00.470Z,8.1
2023-05-13T04:07:00.423Z,8.4
2023-05-13T04:12:00.426Z,8.4
2023-05-13T04:17:00.504Z,8.0
2023-05-13T04:22:00.436Z,8.7
2023-05-13T04:27:01.417Z,8.8
2023-05-13T04:32:00.558Z,8.7
2023-05-13T04:37:00.424Z,9.1
2023-05-13T04:42:00.448Z,9.4
2023-05-13T04:47:00.427Z,9.2
2023-05-13T04:52:00.439Z,9.5
2023-05-13T04:57:00.433Z,8.8
2023-05-13T05:02:00.613Z,9.4
2023-05-13T05:07:00.449Z,8.9
2023-05-13T05:12:00.450Z,9.0
2023-05-13T05:17:00.541Z,9.2
2023-05-13T05:22:00.444Z,9.4
2023-05-13T05:27:00.475Z,10.1
2023-05-13T05:32:00.632Z,9.9
2023-05-13T05:37:00.450Z,9.1
2023-05-13T05:42:00.491Z,10.2
2023-05-13T05:47:00.464Z,10.8
2023-05-13T05:52:00.471Z,9.6
2023-05-13T05:57:00.460Z,10.1
2023-05-13T06:02:00.546Z,10.4
2023-05-13T06:07:00.478Z,9.9
2023-05-13T06:12:00.469Z,9.7
2023-05-13T06:17:00.469Z,9.3
2023-05-13T06:22:02.586Z,10.0
2023-05-13T06:27:00.491Z,9.7
2023-05-13T06:32:00.484Z,9.1
2023-05-13T06:37:00.490Z,9.5
2023-05-13T06:42:00.488Z,9.8
2023-05-13T06:47:00.674Z,9.8
2023-05-13T06:52:00.509Z,9.4
2023-05-13T06:57:00.508Z,9.5
2023-05-13T07:02:00.618Z,9.8
2023-05-13T07:07:00.514Z,9.2
2023-05-13T07:12:00.501Z,8.9
2023-05-13T07:17:00.543Z,8.9
2023-05-13T07:22:00.511Z,9.6
2023-05-13T07:27:00.528Z,9.6
2023-05-13T07:32:00.526Z,9.4
2023-05-13T07:37:00.569Z,9.2
2023-05-13T07:42:00.520Z,8.8
2023-05-13T07:47:00.562Z,8.7
2023-05-13T07:52:00.535Z,8.7
2023-05-13T07:57:00.551Z,9.1
2023-05-13T08:02:00.548Z,8.2
2023-05-13T08:07:00.544Z,9.1
2023-05-13T08:12:00.561Z,9.4
2023-05-13T08:17:00.548Z,8.8
2023-05-13T08:22:00.576Z,8.8
2023-05-13T08:27:00.638Z,8.5
2023-05-13T08:32:00.638Z,8.7
2023-05-13T08:37:00.562Z,8.4
2023-05-13T08:42:00.571Z,8.5
2023-05-13T08:47:00.566Z,7.8
2023-05-13T08:52:00.578Z,8.4
2023-05-13T08:57:00.566Z,7.7
2023-05-13T09:02:00.574Z,7.7
2023-05-13T09:07:00.585Z,8.2
2023-05-13T09:12:00.586Z,7.8
2023-05-13T09:17:00.577Z,7.1
2023-05-13T09:22:00.594Z,8.1
2023-05-13T09:27:00.587Z,7.7
2023-05-13T09:32:00.622Z,7.3
2023-05-13T09:37:00.593Z,6.9
2023-05-13T09:42:01.299Z,6.9
2023-05-13T09:47:00.659Z,5.6
2023-05-13T09:52:00.614Z,5.2
2023-05-13T09:57:00.607Z,5.4
2023-05-13T10:02:00.610Z,5.5
2023-05-13T10:07:00.619Z,5.5
2023-05-13T10:12:00.610Z,5.1
2023-05-13T10:17:00.647Z,6.6
2023-05-13T10:22:00.629Z,5.5
2023-05-13T10:27:00.665Z,5.2
2023-05-13T10:32:00.685Z,5.1
2023-05-13T10:37:00.624Z,4.9
2023-05-13T10:42:00.632Z,4.8
2023-05-13T10:47:00.635Z,4.6
2023-05-13T10:52:00.628Z,4.9
2023-05-13T10:57:00.641Z,4.5
2023-05-13T11:02:00.746Z,4.6
2023-05-13T11:07:00.642Z,4.6
2023-05-13T11:12:00.648Z,4.5
2023-05-13T11:17:00.656Z,4.6
2023-05-13T11:22:00.653Z,4.2
2023-05-13T11:27:00.657Z,4.8
2023-05-13T11:32:01.212Z,4.3
2023-05-13T11:37:00.654Z,4.2
2023-05-13T11:42:00.664Z,4.0
2023-05-13T11:47:00.669Z,3.3
2023-05-13T11:52:00.663Z,3.2
2023-05-13T11:57:00.669Z,3.5
2023-05-13T12:02:00.701Z,3.0
2023-05-13T12:07:00.680Z,3.2
2023-05-13T12:12:00.690Z,3.7
2023-05-13T12:17:00.678Z,3.5
2023-05-13T12:22:00.681Z,3.5
2023-05-13T12:27:00.704Z,3.0
2023-05-13T12:32:00.691Z,3.0
2023-05-13T12:37:00.724Z,2.9
2023-05-13T12:42:00.696Z,2.6
2023-05-13T12:47:00.756Z,3.0
2023-05-13T12:52:00.709Z,3.0
2023-05-13T12:57:00.709Z,3.2
2023-05-13T13:02:00.711Z,2.9
2023-05-13T13:07:00.700Z,3.2
2023-05-13T13:12:00.700Z,2.9
2023-05-13T13:17:00.701Z,2.4
2023-05-13T13:22:00.765Z,2.6
2023-05-13T13:27:00.726Z,2.8
2023-05-13T13:32:00.743Z,3.0
2023-05-13T13:37:00.717Z,2.8
2023-05-13T13:42:00.718Z,2.6
2023-05-13T13:47:00.730Z,2.6
2023-05-13T13:52:00.723Z,2.9
2023-05-13T13:57:00.724Z,2.7
2023-05-13T14:02:00.832Z,2.8
2023-05-13T14:07:00.740Z,2.9
2023-05-13T14:12:00.765Z,2.8
2023-05-13T14:17:00.753Z,2.7
2023-05-13T14:22:00.740Z,3.0
2023-05-13T14:27:00.769Z,2.8
2023-05-13T14:32:00.801Z,2.7
2023-05-13T14:37:00.752Z,3.0
2023-05-13T14:42:00.782Z,2.5
2023-05-13T14:47:00.805Z,2.7
2023-05-13T14:52:00.758Z,2.7
2023-05-13T14:57:00.757Z,2.6
2023-05-13T15:02:00.800Z,2.5
2023-05-13T15:07:00.772Z,2.6
2023-05-13T15:12:00.763Z,2.4
2023-05-13T15:17:00.814Z,3.0
2023-05-13T15:22:00.768Z,2.8
2023-05-13T15:27:00.772Z,2.5
2023-05-13T15:32:00.777Z,2.5
2023-05-13T15:37:00.797Z,2.7
2023-05-13T15:42:00.776Z,2.7
2023-05-13T15:47:00.889Z,3.1
2023-05-13T15:52:00.784Z,2.8
2023-05-13T15:57:00.853Z,2.8
2023-05-13T16:02:00.825Z,2.7
2023-05-13T16:07:00.799Z,2.9
2023-05-13T16:12:00.803Z,2.6
2023-05-13T16:17:00.832Z,2.6
2023-05-13T16:27:00.807Z,2.7
2023-05-13T16:32:00.824Z,2.9
2023-05-13T16:37:00.807Z,2.7
2023-05-13T16:42:00.804Z,2.5
2023-05-13T16:47:00.809Z,2.6
2023-05-13T16:52:00.802Z,3.0
2023-05-13T16:57:00.808Z,2.4
2023-05-13T17:02:00.897Z,2.6
2023-05-13T17:07:00.821Z,2.8
2023-05-13T17:12:00.825Z,2.8
2023-05-13T17:17:00.903Z,2.8
2023-05-13T17:22:00.878Z,2.7
2023-05-13T17:27:00.814Z,3.3
2023-05-13T17:32:00.831Z,2.7
2023-05-13T17:37:00.837Z,2.9
2023-05-13T17:42:00.829Z,3.1
2023-05-13T17:47:00.846Z,2.9
2023-05-13T17:52:00.836Z,2.7
2023-05-13T17:57:00.836Z,2.7
2023-05-13T18:02:00.867Z,3.2
2023-05-13T18:07:00.831Z,2.7
2023-05-13T18:12:00.848Z,3.1
2023-05-13T18:17:00.834Z,3.2
2023-05-13T18:22:00.844Z,3.0
2023-05-13T18:27:00.830Z,3.0
2023-05-13T18:32:00.890Z,3.0
2023-05-13T18:37:00.843Z,3.4
2023-05-13T18:42:00.854Z,3.3
2023-05-13T18:47:00.852Z,3.2
2023-05-13T18:52:00.846Z,2.9
2023-05-13T18:57:00.845Z,3.2
2023-05-13T19:02:01.051Z,3.2
2023-05-13T19:07:00.850Z,3.8
2023-05-13T19:12:00.842Z,3.9
2023-05-13T19:17:00.899Z,3.6
2023-05-13T19:22:00.857Z,3.9
2023-05-13T19:27:00.852Z,4.1
2023-05-13T19:32:00.870Z,4.0
2023-05-13T19:37:00.862Z,4.4
2023-05-13T19:42:00.875Z,4.5
2023-05-13T19:47:00.920Z,3.9
2023-05-13T19:52:00.862Z,4.3
2023-05-13T19:57:00.856Z,4.5
2023-05-13T20:02:00.909Z,3.9
2023-05-13T20:07:00.884Z,9.3
2023-05-13T20:12:00.872Z,5.4
2023-05-13T20:17:00.944Z,4.9
2023-05-13T20:22:00.860Z,5.1
2023-05-13T20:27:00.865Z,6.1
2023-05-13T20:32:00.978Z,5.5
2023-05-13T20:37:00.877Z,4.3
2023-05-13T20:42:00.869Z,4.2
2023-05-13T20:47:00.883Z,4.5
2023-05-13T20:52:00.905Z,4.0
2023-05-13T20:57:00.890Z,3.9
2023-05-13T21:02:00.891Z,4.1
2023-05-13T21:07:00.879Z,4.6
2023-05-13T21:12:00.937Z,4.8
2023-05-13T21:17:00.892Z,5.3
2023-05-13T21:22:00.907Z,4.9
2023-05-13T21:27:00.915Z,5.6
2023-05-13T21:32:00.897Z,6.3
2023-05-13T21:37:00.893Z,5.9
2023-05-13T21:42:00.940Z,6.1
2023-05-13T21:47:00.907Z,6.2
2023-05-13T21:52:00.897Z,6.2
2023-05-13T21:57:00.905Z,6.2
2023-05-13T22:02:00.948Z,6.4
2023-05-13T22:07:00.899Z,6.6
2023-05-13T22:12:00.919Z,6.7
2023-05-13T22:17:08.566Z,7.6
2023-05-13T22:22:00.904Z,6.8
2023-05-13T22:27:00.918Z,6.6
2023-05-13T22:32:00.935Z,6.6
2023-05-13T22:37:00.918Z,6.7
2023-05-13T22:42:00.917Z,6.3
2023-05-13T22:47:00.915Z,6.3
2023-05-13T22:52:00.929Z,6.2
2023-05-13T22:57:00.930Z,6.6
2023-05-13T23:02:00.980Z,6.4
2023-05-13T23:07:00.956Z,7.0
2023-05-13T23:12:00.931Z,7.3
2023-05-13T23:17:00.929Z,7.3
2023-05-13T23:22:00.929Z,8.2
2023-05-13T23:27:00.940Z,7.6
2023-05-13T23:32:01.050Z,7.7
2023-05-13T23:37:00.930Z,8.0
2023-05-13T23:42:00.946Z,8.2
2023-05-13T23:47:00.931Z,8.3
2023-05-13T23:52:00.954Z,8.1
2023-05-13T23:57:00.979Z,8.5
